sensor_id;sensor_type;location;lat;lon;timestamp;temperature;humidity
19359;DHT22;9815;52.334;20.890;2022-08-07T00:02:12;14.70;99.90
19359;DHT22;9815;52.334;20.890;2022-08-07T00:05:00;14.60;99.90
19359;DHT22;9815;52.334;20.890;2022-08-07T00:07:33;14.60;99.90
19359;DHT22;9815;52.334;20.890;2022-08-07T00:10:08;14.50;99.90
19359;DHT22;9815;52.334;20.890;2022-08-07T00:12:53;14.50;99.90
19359;DHT22;9815;52.334;20.890;2022-08-07T00:15:27;14.40;99.90
19359;DHT22;9815;52.334;20.890;2022-08-07T00:18:04;14.40;99.90
19359;DHT22;9815;52.334;20.890;2022-08-07T00:20:46;14.30;99.90
19359;DHT22;9815;52.334;20.890;2022-08-07T00:23:15;14.20;99.90
19359;DHT22;9815;52.334;20.890;2022-08-07T00:25:47;14.20;99.90
19359;DHT22;9815;52.334;20.890;2022-08-07T00:28:26;14.20;99.90
19359;DHT22;9815;52.334;20.890;2022-08-07T00:31:02;14.10;99.90
19359;DHT22;9815;52.334;20.890;2022-08-07T00:33:39;14.10;99.90
19359;DHT22;9815;52.334;20.890;2022-08-07T00:36:08;14.00;99.90
19359;DHT22;9815;52.334;20.890;2022-08-07T00:38:37;14.00;99.90
19359;DHT22;9815;52.334;20.890;2022-08-07T00:41:06;14.00;99.90
19359;DHT22;9815;52.334;20.890;2022-08-07T00:43:41;14.00;99.90
19359;DHT22;9815;52.334;20.890;2022-08-07T00:46:30;13.90;99.90
19359;DHT22;9815;52.334;20.890;2022-08-07T00:49:00;13.90;99.90
19359;DHT22;9815;52.334;20.890;2022-08-07T00:51:30;13.80;99.90
19359;DHT22;9815;52.334;20.890;2022-08-07T00:54:18;13.80;99.90
19359;DHT22;9815;52.334;20.890;2022-08-07T00:56:49;13.70;99.90
19359;DHT22;9815;52.334;20.890;2022-08-07T00:59:19;13.70;99.90
19359;DHT22;9815;52.334;20.890;2022-08-07T01:02:04;13.60;99.90
19359;DHT22;9815;52.334;20.890;2022-08-07T01:04:52;13.60;99.90
19359;DHT22;9815;52.334;20.890;2022-08-07T01:07:26;13.60;99.90
19359;DHT22;9815;52.334;20.890;2022-08-07T01:09:57;13.50;99.90
19359;DHT22;9815;52.334;20.890;2022-08-07T01:12:39;13.50;99.90
19359;DHT22;9815;52.334;20.890;2022-08-07T01:15:23;13.40;99.90
19359;DHT22;9815;52.334;20.890;2022-08-07T01:18:13;13.40;99.90
19359;DHT22;9815;52.334;20.890;2022-08-07T01:20:49;13.30;99.90
19359;DHT22;9815;52.334;20.890;2022-08-07T01:23:29;13.30;99.90
19359;DHT22;9815;52.334;20.890;2022-08-07T01:26:06;13.20;99.90
19359;DHT22;9815;52.334;20.890;2022-08-07T01:28:41;13.10;99.90
19359;DHT22;9815;52.334;20.890;2022-08-07T01:31:15;13.00;99.90
19359;DHT22;9815;52.334;20.890;2022-08-07T01:33:46;12.90;99.90
19359;DHT22;9815;52.334;20.890;2022-08-07T01:36:23;12.90;99.90
19359;DHT22;9815;52.334;20.890;2022-08-07T01:39:08;12.90;99.90
19359;DHT22;9815;52.334;20.890;2022-08-07T01:41:41;12.80;99.90
19359;DHT22;9815;52.334;20.890;2022-08-07T01:44:33;12.80;99.90
19359;DHT22;9815;52.334;20.890;2022-08-07T01:47:02;12.80;99.90
19359;DHT22;9815;52.334;20.890;2022-08-07T01:49:51;12.80;99.90
19359;DHT22;9815;52.334;20.890;2022-08-07T01:52:24;12.80;99.90
19359;DHT22;9815;52.334;20.890;2022-08-07T01:54:55;12.80;99.90
19359;DHT22;9815;52.334;20.890;2022-08-07T01:57:31;12.80;99.90
19359;DHT22;9815;52.334;20.890;2022-08-07T02:00:21;12.70;99.90
19359;DHT22;9815;52.334;20.890;2022-08-07T02:02:58;12.60;99.90
19359;DHT22;9815;52.334;20.890;2022-08-07T02:05:51;12.60;99.90
19359;DHT22;9815;52.334;20.890;2022-08-07T02:08:33;12.50;99.90
19359;DHT22;9815;52.334;20.890;2022-08-07T02:11:10;12.50;99.90
19359;DHT22;9815;52.334;20.890;2022-08-07T02:14:01;12.40;99.90
19359;DHT22;9815;52.334;20.890;2022-08-07T02:16:37;12.40;99.90
19359;DHT22;9815;52.334;20.890;2022-08-07T02:19:08;12.30;99.90
19359;DHT22;9815;52.334;20.890;2022-08-07T02:21:57;12.20;99.90
19359;DHT22;9815;52.334;20.890;2022-08-07T02:24:29;12.20;99.90
19359;DHT22;9815;52.334;20.890;2022-08-07T02:27:00;12.10;99.90
19359;DHT22;9815;52.334;20.890;2022-08-07T02:29:32;12.10;99.90
19359;DHT22;9815;52.334;20.890;2022-08-07T02:32:23;12.00;99.90
19359;DHT22;9815;52.334;20.890;2022-08-07T02:34:56;12.00;99.90
19359;DHT22;9815;52.334;20.890;2022-08-07T02:37:29;12.00;99.90
19359;DHT22;9815;52.334;20.890;2022-08-07T02:40:06;11.90;99.90
19359;DHT22;9815;52.334;20.890;2022-08-07T02:42:58;11.90;99.90
19359;DHT22;9815;52.334;20.890;2022-08-07T02:45:37;11.90;99.90
19359;DHT22;9815;52.334;20.890;2022-08-07T02:48:27;11.90;99.90
19359;DHT22;9815;52.334;20.890;2022-08-07T02:51:00;12.00;99.90
19359;DHT22;9815;52.334;20.890;2022-08-07T02:53:32;12.00;99.90
19359;DHT22;9815;52.334;20.890;2022-08-07T02:56:10;12.00;99.90
19359;DHT22;9815;52.334;20.890;2022-08-07T02:58:49;12.00;99.90
19359;DHT22;9815;52.334;20.890;2022-08-07T03:01:23;12.00;99.90
19359;DHT22;9815;52.334;20.890;2022-08-07T03:04:05;11.80;99.90
19359;DHT22;9815;52.334;20.890;2022-08-07T03:06:41;11.70;99.90
19359;DHT22;9815;52.334;20.890;2022-08-07T03:09:12;11.60;99.90
19359;DHT22;9815;52.334;20.890;2022-08-07T03:12:02;11.60;99.90
19359;DHT22;9815;52.334;20.890;2022-08-07T03:14:36;11.50;99.90
19359;DHT22;9815;52.334;20.890;2022-08-07T03:17:08;11.50;99.90
19359;DHT22;9815;52.334;20.890;2022-08-07T03:19:38;11.50;99.90
19359;DHT22;9815;52.334;20.890;2022-08-07T03:22:08;11.60;99.90
19359;DHT22;9815;52.334;20.890;2022-08-07T03:24:46;11.60;99.90
19359;DHT22;9815;52.334;20.890;2022-08-07T03:27:15;11.70;99.90
19359;DHT22;9815;52.334;20.890;2022-08-07T03:30:07;11.70;99.90
19359;DHT22;9815;52.334;20.890;2022-08-07T03:32:42;11.70;99.90
19359;DHT22;9815;52.334;20.890;2022-08-07T03:35:26;11.70;99.90
19359;DHT22;9815;52.334;20.890;2022-08-07T03:38:16;11.70;99.90
19359;DHT22;9815;52.334;20.890;2022-08-07T03:40:58;11.70;99.90
19359;DHT22;9815;52.334;20.890;2022-08-07T03:43:30;11.70;99.90
19359;DHT22;9815;52.334;20.890;2022-08-07T03:46:04;11.70;99.90
19359;DHT22;9815;52.334;20.890;2022-08-07T03:48:47;11.70;99.90
19359;DHT22;9815;52.334;20.890;2022-08-07T03:51:32;11.80;99.90
19359;DHT22;9815;52.334;20.890;2022-08-07T03:54:14;11.70;99.90
19359;DHT22;9815;52.334;20.890;2022-08-07T03:57:05;11.70;99.90
19359;DHT22;9815;52.334;20.890;2022-08-07T03:59:36;11.70;99.90
19359;DHT22;9815;52.334;20.890;2022-08-07T04:02:27;11.70;99.90
19359;DHT22;9815;52.334;20.890;2022-08-07T04:04:56;11.70;99.90
19359;DHT22;9815;52.334;20.890;2022-08-07T04:07:25;11.60;99.90
19359;DHT22;9815;52.334;20.890;2022-08-07T04:10:09;11.60;99.90
19359;DHT22;9815;52.334;20.890;2022-08-07T04:12:48;11.60;99.90
19359;DHT22;9815;52.334;20.890;2022-08-07T04:15:17;11.60;99.90
19359;DHT22;9815;52.334;20.890;2022-08-07T04:17:51;11.70;99.90
19359;DHT22;9815;52.334;20.890;2022-08-07T04:20:41;11.70;99.90
19359;DHT22;9815;52.334;20.890;2022-08-07T04:23:23;11.70;99.90
19359;DHT22;9815;52.334;20.890;2022-08-07T04:26:12;11.70;99.90
19359;DHT22;9815;52.334;20.890;2022-08-07T04:28:48;11.80;99.90
19359;DHT22;9815;52.334;20.890;2022-08-07T04:31:18;11.80;99.90
19359;DHT22;9815;52.334;20.890;2022-08-07T04:34:08;11.90;99.90
19359;DHT22;9815;52.334;20.890;2022-08-07T04:36:45;12.00;99.90
19359;DHT22;9815;52.334;20.890;2022-08-07T04:39:16;12.10;99.90
19359;DHT22;9815;52.334;20.890;2022-08-07T04:41:53;12.20;99.90
19359;DHT22;9815;52.334;20.890;2022-08-07T04:44:23;12.30;99.90
19359;DHT22;9815;52.334;20.890;2022-08-07T04:46:59;12.30;99.90
19359;DHT22;9815;52.334;20.890;2022-08-07T04:49:46;12.40;99.90
19359;DHT22;9815;52.334;20.890;2022-08-07T04:52:38;12.50;99.90
19359;DHT22;9815;52.334;20.890;2022-08-07T04:55:23;12.60;99.90
19359;DHT22;9815;52.334;20.890;2022-08-07T04:58:18;12.70;99.90
19359;DHT22;9815;52.334;20.890;2022-08-07T05:01:13;12.90;99.90
19359;DHT22;9815;52.334;20.890;2022-08-07T05:03:50;13.00;99.90
19359;DHT22;9815;52.334;20.890;2022-08-07T05:06:46;13.10;99.90
19359;DHT22;9815;52.334;20.890;2022-08-07T05:09:25;13.20;99.90
19359;DHT22;9815;52.334;20.890;2022-08-07T05:12:22;13.30;99.90
19359;DHT22;9815;52.334;20.890;2022-08-07T05:15:02;13.40;99.90
19359;DHT22;9815;52.334;20.890;2022-08-07T05:17:57;13.40;99.90
19359;DHT22;9815;52.334;20.890;2022-08-07T05:20:39;13.50;99.90
19359;DHT22;9815;52.334;20.890;2022-08-07T05:23:11;13.60;99.90
19359;DHT22;9815;52.334;20.890;2022-08-07T05:25:45;13.70;99.90
19359;DHT22;9815;52.334;20.890;2022-08-07T05:28:34;13.80;99.90
19359;DHT22;9815;52.334;20.890;2022-08-07T05:31:10;13.80;99.90
19359;DHT22;9815;52.334;20.890;2022-08-07T05:33:43;13.90;99.90
19359;DHT22;9815;52.334;20.890;2022-08-07T05:36:33;13.90;99.90
19359;DHT22;9815;52.334;20.890;2022-08-07T05:39:11;14.00;99.90
19359;DHT22;9815;52.334;20.890;2022-08-07T05:42:01;14.10;99.90
19359;DHT22;9815;52.334;20.890;2022-08-07T05:44:38;14.20;99.90
19359;DHT22;9815;52.334;20.890;2022-08-07T05:47:27;14.20;99.90
19359;DHT22;9815;52.334;20.890;2022-08-07T05:50:17;14.30;99.90
19359;DHT22;9815;52.334;20.890;2022-08-07T05:52:46;14.40;99.90
19359;DHT22;9815;52.334;20.890;2022-08-07T05:55:17;14.50;99.90
19359;DHT22;9815;52.334;20.890;2022-08-07T05:57:47;14.60;99.90
19359;DHT22;9815;52.334;20.890;2022-08-07T06:00:17;14.60;99.90
19359;DHT22;9815;52.334;20.890;2022-08-07T06:02:55;14.70;99.90
19359;DHT22;9815;52.334;20.890;2022-08-07T06:05:26;14.70;99.90
19359;DHT22;9815;52.334;20.890;2022-08-07T06:08:03;14.80;99.90
19359;DHT22;9815;52.334;20.890;2022-08-07T06:10:53;14.90;99.90
19359;DHT22;9815;52.334;20.890;2022-08-07T06:13:22;15.00;99.90
19359;DHT22;9815;52.334;20.890;2022-08-07T06:16:12;15.20;99.90
19359;DHT22;9815;52.334;20.890;2022-08-07T06:18:43;15.30;99.90
19359;DHT22;9815;52.334;20.890;2022-08-07T06:21:22;15.40;99.90
19359;DHT22;9815;52.334;20.890;2022-08-07T06:24:12;15.40;99.90
19359;DHT22;9815;52.334;20.890;2022-08-07T06:27:02;15.40;99.90
19359;DHT22;9815;52.334;20.890;2022-08-07T06:29:32;15.50;99.90
19359;DHT22;9815;52.334;20.890;2022-08-07T06:32:06;15.60;99.90
19359;DHT22;9815;52.334;20.890;2022-08-07T06:34:34;15.60;99.90
19359;DHT22;9815;52.334;20.890;2022-08-07T06:37:10;15.70;99.30
19359;DHT22;9815;52.334;20.890;2022-08-07T06:39:44;15.80;99.90
19359;DHT22;9815;52.334;20.890;2022-08-07T06:42:35;15.80;98.40
19359;DHT22;9815;52.334;20.890;2022-08-07T06:45:24;15.90;99.90
19359;DHT22;9815;52.334;20.890;2022-08-07T06:47:56;15.90;91.00
19359;DHT22;9815;52.334;20.890;2022-08-07T06:50:35;16.10;89.20
19359;DHT22;9815;52.334;20.890;2022-08-07T06:53:09;16.10;92.00
19359;DHT22;9815;52.334;20.890;2022-08-07T06:55:59;16.20;85.00
19359;DHT22;9815;52.334;20.890;2022-08-07T06:58:35;16.20;86.40
19359;DHT22;9815;52.334;20.890;2022-08-07T07:01:09;16.30;88.60
19359;DHT22;9815;52.334;20.890;2022-08-07T07:03:41;16.40;92.00
19359;DHT22;9815;52.334;20.890;2022-08-07T07:06:16;16.40;83.80
19359;DHT22;9815;52.334;20.890;2022-08-07T07:08:53;16.50;86.00
19359;DHT22;9815;52.334;20.890;2022-08-07T07:11:24;16.50;84.20
19359;DHT22;9815;52.334;20.890;2022-08-07T07:14:16;16.50;84.70
19359;DHT22;9815;52.334;20.890;2022-08-07T07:16:50;16.60;78.80
19359;DHT22;9815;52.334;20.890;2022-08-07T07:19:24;16.70;78.80
19359;DHT22;9815;52.334;20.890;2022-08-07T07:22:14;16.70;81.10
19359;DHT22;9815;52.334;20.890;2022-08-07T07:25:06;16.80;77.50
19359;DHT22;9815;52.334;20.890;2022-08-07T07:27:57;16.90;79.00
19359;DHT22;9815;52.334;20.890;2022-08-07T07:30:56;16.90;74.90
19359;DHT22;9815;52.334;20.890;2022-08-07T07:33:28;17.00;75.40
19359;DHT22;9815;52.334;20.890;2022-08-07T07:36:00;17.00;71.40
19359;DHT22;9815;52.334;20.890;2022-08-07T07:38:40;17.10;69.40
19359;DHT22;9815;52.334;20.890;2022-08-07T07:41:15;17.20;68.60
19359;DHT22;9815;52.334;20.890;2022-08-07T07:43:46;17.30;68.60
19359;DHT22;9815;52.334;20.890;2022-08-07T07:46:39;17.40;66.80
19359;DHT22;9815;52.334;20.890;2022-08-07T07:49:26;17.60;69.90
19359;DHT22;9815;52.334;20.890;2022-08-07T07:52:16;17.50;65.80
19359;DHT22;9815;52.334;20.890;2022-08-07T07:54:45;17.70;64.70
19359;DHT22;9815;52.334;20.890;2022-08-07T07:57:19;18.00;66.70
19359;DHT22;9815;52.334;20.890;2022-08-07T08:00:10;18.20;62.70
19359;DHT22;9815;52.334;20.890;2022-08-07T08:03:00;18.60;63.10
19359;DHT22;9815;52.334;20.890;2022-08-07T08:05:35;19.50;60.10
19359;DHT22;9815;52.334;20.890;2022-08-07T08:08:22;20.00;57.10
19359;DHT22;9815;52.334;20.890;2022-08-07T08:11:03;20.70;58.60
19359;DHT22;9815;52.334;20.890;2022-08-07T08:13:36;20.60;53.60
19359;DHT22;9815;52.334;20.890;2022-08-07T08:16:24;20.70;53.50
19359;DHT22;9815;52.334;20.890;2022-08-07T08:18:59;21.10;52.10
19359;DHT22;9815;52.334;20.890;2022-08-07T08:21:48;21.20;53.10
19359;DHT22;9815;52.334;20.890;2022-08-07T08:24:38;20.70;52.30
19359;DHT22;9815;52.334;20.890;2022-08-07T08:27:48;20.50;52.40
19359;DHT22;9815;52.334;20.890;2022-08-07T08:30:28;20.60;53.40
19359;DHT22;9815;52.334;20.890;2022-08-07T08:33:02;20.50;53.20
19359;DHT22;9815;52.334;20.890;2022-08-07T08:35:47;20.20;52.50
19359;DHT22;9815;52.334;20.890;2022-08-07T08:38:21;19.80;54.50
19359;DHT22;9815;52.334;20.890;2022-08-07T08:41:01;19.50;53.50
19359;DHT22;9815;52.334;20.890;2022-08-07T08:43:39;19.80;53.90
19359;DHT22;9815;52.334;20.890;2022-08-07T08:46:32;20.20;54.70
19359;DHT22;9815;52.334;20.890;2022-08-07T08:49:09;20.70;49.70
19359;DHT22;9815;52.334;20.890;2022-08-07T08:51:50;21.00;49.80
19359;DHT22;9815;52.334;20.890;2022-08-07T08:54:44;21.20;49.20
19359;DHT22;9815;52.334;20.890;2022-08-07T08:57:22;20.50;49.70
19359;DHT22;9815;52.334;20.890;2022-08-07T09:00:00;20.40;50.80
19359;DHT22;9815;52.334;20.890;2022-08-07T09:02:36;21.20;50.10
19359;DHT22;9815;52.334;20.890;2022-08-07T09:05:21;21.20;48.90
19359;DHT22;9815;52.334;20.890;2022-08-07T09:08:12;21.20;47.10
19359;DHT22;9815;52.334;20.890;2022-08-07T09:11:08;21.80;46.80
19359;DHT22;9815;52.334;20.890;2022-08-07T09:14:06;22.50;43.30
19359;DHT22;9815;52.334;20.890;2022-08-07T09:16:52;21.80;44.50
19359;DHT22;9815;52.334;20.890;2022-08-07T09:19:34;22.20;45.30
19359;DHT22;9815;52.334;20.890;2022-08-07T09:22:39;22.20;44.30
19359;DHT22;9815;52.334;20.890;2022-08-07T09:25:35;22.40;45.40
19359;DHT22;9815;52.334;20.890;2022-08-07T09:28:10;23.10;43.00
19359;DHT22;9815;52.334;20.890;2022-08-07T09:31:09;22.20;44.60
19359;DHT22;9815;52.334;20.890;2022-08-07T09:33:53;22.60;43.60
19359;DHT22;9815;52.334;20.890;2022-08-07T09:36:28;22.90;42.70
19359;DHT22;9815;52.334;20.890;2022-08-07T09:39:08;23.40;41.20
19359;DHT22;9815;52.334;20.890;2022-08-07T09:42:06;23.50;42.90
19359;DHT22;9815;52.334;20.890;2022-08-07T09:44:54;23.40;44.20
19359;DHT22;9815;52.334;20.890;2022-08-07T09:47:54;22.60;39.20
19359;DHT22;9815;52.334;20.890;2022-08-07T09:50:43;23.40;41.00
19359;DHT22;9815;52.334;20.890;2022-08-07T09:53:20;23.20;40.20
19359;DHT22;9815;52.334;20.890;2022-08-07T09:56:10;22.90;39.80
19359;DHT22;9815;52.334;20.890;2022-08-07T09:59:14;23.50;40.60
19359;DHT22;9815;52.334;20.890;2022-08-07T10:02:09;23.70;40.40
19359;DHT22;9815;52.334;20.890;2022-08-07T10:04:54;23.60;41.60
19359;DHT22;9815;52.334;20.890;2022-08-07T10:07:48;23.40;40.10
19359;DHT22;9815;52.334;20.890;2022-08-07T10:10:39;23.00;41.50
19359;DHT22;9815;52.334;20.890;2022-08-07T10:13:46;23.30;40.80
19359;DHT22;9815;52.334;20.890;2022-08-07T10:16:41;23.00;41.70
19359;DHT22;9815;52.334;20.890;2022-08-07T10:19:21;23.00;42.30
19359;DHT22;9815;52.334;20.890;2022-08-07T10:22:02;22.30;40.20
19359;DHT22;9815;52.334;20.890;2022-08-07T10:24:53;22.20;41.10
19359;DHT22;9815;52.334;20.890;2022-08-07T10:27:40;22.30;42.20
19359;DHT22;9815;52.334;20.890;2022-08-07T10:30:18;23.00;40.20
19359;DHT22;9815;52.334;20.890;2022-08-07T10:33:13;23.00;38.60
19359;DHT22;9815;52.334;20.890;2022-08-07T10:36:21;24.00;37.20
19359;DHT22;9815;52.334;20.890;2022-08-07T10:38:59;23.70;37.50
19359;DHT22;9815;52.334;20.890;2022-08-07T10:41:34;23.70;41.60
19359;DHT22;9815;52.334;20.890;2022-08-07T10:44:22;24.30;38.90
19359;DHT22;9815;52.334;20.890;2022-08-07T10:47:12;24.80;39.50
19359;DHT22;9815;52.334;20.890;2022-08-07T10:49:49;24.20;39.50
19359;DHT22;9815;52.334;20.890;2022-08-07T10:52:33;23.50;42.30
19359;DHT22;9815;52.334;20.890;2022-08-07T10:55:13;23.20;41.10
19359;DHT22;9815;52.334;20.890;2022-08-07T10:58:11;23.40;41.00
19359;DHT22;9815;52.334;20.890;2022-08-07T11:00:48;23.20;41.60
19359;DHT22;9815;52.334;20.890;2022-08-07T11:03:28;23.80;40.00
19359;DHT22;9815;52.334;20.890;2022-08-07T11:06:24;24.40;40.90
19359;DHT22;9815;52.334;20.890;2022-08-07T11:08:58;24.60;39.50
19359;DHT22;9815;52.334;20.890;2022-08-07T11:11:31;24.60;37.80
19359;DHT22;9815;52.334;20.890;2022-08-07T11:14:09;24.60;39.30
19359;DHT22;9815;52.334;20.890;2022-08-07T11:17:03;24.80;37.10
19359;DHT22;9815;52.334;20.890;2022-08-07T11:19:46;24.60;37.70
19359;DHT22;9815;52.334;20.890;2022-08-07T11:22:32;24.60;38.00
19359;DHT22;9815;52.334;20.890;2022-08-07T11:25:15;24.60;40.30
19359;DHT22;9815;52.334;20.890;2022-08-07T11:27:51;23.60;43.20
19359;DHT22;9815;52.334;20.890;2022-08-07T11:30:36;23.70;44.20
19359;DHT22;9815;52.334;20.890;2022-08-07T11:33:18;23.00;43.30
19359;DHT22;9815;52.334;20.890;2022-08-07T11:36:16;21.90;44.20
19359;DHT22;9815;52.334;20.890;2022-08-07T11:39:04;21.90;45.10
19359;DHT22;9815;52.334;20.890;2022-08-07T11:41:39;23.20;42.30
19359;DHT22;9815;52.334;20.890;2022-08-07T11:44:39;23.30;42.90
19359;DHT22;9815;52.334;20.890;2022-08-07T11:47:37;23.30;40.60
19359;DHT22;9815;52.334;20.890;2022-08-07T11:50:44;23.40;40.00
19359;DHT22;9815;52.334;20.890;2022-08-07T11:53:33;24.10;39.90
19359;DHT22;9815;52.334;20.890;2022-08-07T11:56:35;23.40;39.90
19359;DHT22;9815;52.334;20.890;2022-08-07T11:59:26;23.30;41.40
19359;DHT22;9815;52.334;20.890;2022-08-07T12:05:34;24.50;36.70
19359;DHT22;9815;52.334;20.890;2022-08-07T12:08:19;24.60;39.20
19359;DHT22;9815;52.334;20.890;2022-08-07T12:11:04;25.30;37.70
19359;DHT22;9815;52.334;20.890;2022-08-07T12:13:52;24.60;37.80
19359;DHT22;9815;52.334;20.890;2022-08-07T12:16:26;23.90;41.40
19359;DHT22;9815;52.334;20.890;2022-08-07T12:19:04;23.10;42.50
19359;DHT22;9815;52.334;20.890;2022-08-07T12:21:39;22.80;43.80
19359;DHT22;9815;52.334;20.890;2022-08-07T12:24:33;23.00;45.90
19359;DHT22;9815;52.334;20.890;2022-08-07T12:27:09;22.60;44.00
19359;DHT22;9815;52.334;20.890;2022-08-07T12:29:53;22.60;45.70
19359;DHT22;9815;52.334;20.890;2022-08-07T12:32:33;22.40;44.30
19359;DHT22;9815;52.334;20.890;2022-08-07T12:35:08;23.00;46.20
19359;DHT22;9815;52.334;20.890;2022-08-07T12:37:39;24.20;39.80
19359;DHT22;9815;52.334;20.890;2022-08-07T12:40:30;25.10;38.00
19359;DHT22;9815;52.334;20.890;2022-08-07T12:43:21;26.10;38.10
19359;DHT22;9815;52.334;20.890;2022-08-07T12:46:22;26.60;37.10
19359;DHT22;9815;52.334;20.890;2022-08-07T12:49:10;26.50;37.00
19359;DHT22;9815;52.334;20.890;2022-08-07T12:51:59;25.70;39.50
19359;DHT22;9815;52.334;20.890;2022-08-07T12:54:52;24.80;39.20
19359;DHT22;9815;52.334;20.890;2022-08-07T12:57:30;24.00;42.00
19359;DHT22;9815;52.334;20.890;2022-08-07T13:00:19;23.70;43.20
19359;DHT22;9815;52.334;20.890;2022-08-07T13:03:25;23.10;44.00
19359;DHT22;9815;52.334;20.890;2022-08-07T13:06:28;22.90;44.10
19359;DHT22;9815;52.334;20.890;2022-08-07T13:09:36;22.00;43.50
19359;DHT22;9815;52.334;20.890;2022-08-07T13:12:32;21.50;47.60
19359;DHT22;9815;52.334;20.890;2022-08-07T13:15:12;22.40;45.40
19359;DHT22;9815;52.334;20.890;2022-08-07T13:18:04;23.40;43.30
19359;DHT22;9815;52.334;20.890;2022-08-07T13:20:58;23.60;41.50
19359;DHT22;9815;52.334;20.890;2022-08-07T13:23:36;24.00;42.00
19359;DHT22;9815;52.334;20.890;2022-08-07T13:26:32;24.10;40.40
19359;DHT22;9815;52.334;20.890;2022-08-07T13:29:08;24.40;40.30
19359;DHT22;9815;52.334;20.890;2022-08-07T13:31:45;24.40;39.40
19359;DHT22;9815;52.334;20.890;2022-08-07T13:34:35;24.90;39.80
19359;DHT22;9815;52.334;20.890;2022-08-07T13:37:12;25.70;37.20
19359;DHT22;9815;52.334;20.890;2022-08-07T13:40:05;25.80;35.70
19359;DHT22;9815;52.334;20.890;2022-08-07T13:42:56;26.10;37.10
19359;DHT22;9815;52.334;20.890;2022-08-07T13:45:26;26.10;37.90
19359;DHT22;9815;52.334;20.890;2022-08-07T13:48:16;25.90;37.70
19359;DHT22;9815;52.334;20.890;2022-08-07T13:51:00;26.00;37.60
19359;DHT22;9815;52.334;20.890;2022-08-07T13:53:53;25.60;36.90
19359;DHT22;9815;52.334;20.890;2022-08-07T13:56:28;25.70;36.60
19359;DHT22;9815;52.334;20.890;2022-08-07T13:59:11;25.10;37.50
19359;DHT22;9815;52.334;20.890;2022-08-07T14:01:47;24.50;39.50
19359;DHT22;9815;52.334;20.890;2022-08-07T14:04:33;23.40;40.50
19359;DHT22;9815;52.334;20.890;2022-08-07T14:07:17;22.80;43.90
19359;DHT22;9815;52.334;20.890;2022-08-07T14:09:54;22.50;43.70
19359;DHT22;9815;52.334;20.890;2022-08-07T14:12:47;22.10;45.00
19359;DHT22;9815;52.334;20.890;2022-08-07T14:15:29;21.80;46.20
19359;DHT22;9815;52.334;20.890;2022-08-07T14:18:03;21.90;46.60
19359;DHT22;9815;52.334;20.890;2022-08-07T14:21:00;22.50;45.30
19359;DHT22;9815;52.334;20.890;2022-08-07T14:23:42;23.10;44.10
19359;DHT22;9815;52.334;20.890;2022-08-07T14:26:34;23.50;41.50
19359;DHT22;9815;52.334;20.890;2022-08-07T14:29:09;24.40;41.30
19359;DHT22;9815;52.334;20.890;2022-08-07T14:32:01;24.70;39.80
19359;DHT22;9815;52.334;20.890;2022-08-07T14:34:31;24.70;39.10
19359;DHT22;9815;52.334;20.890;2022-08-07T14:37:13;24.70;40.10
19359;DHT22;9815;52.334;20.890;2022-08-07T14:39:44;25.10;38.90
19359;DHT22;9815;52.334;20.890;2022-08-07T14:42:36;25.80;36.20
19359;DHT22;9815;52.334;20.890;2022-08-07T14:45:28;26.30;35.00
19359;DHT22;9815;52.334;20.890;2022-08-07T14:48:16;26.00;37.00
19359;DHT22;9815;52.334;20.890;2022-08-07T14:50:49;25.40;39.00
19359;DHT22;9815;52.334;20.890;2022-08-07T14:53:22;25.60;38.90
19359;DHT22;9815;52.334;20.890;2022-08-07T14:56:13;25.30;39.30
19359;DHT22;9815;52.334;20.890;2022-08-07T14:59:06;24.80;40.10
19359;DHT22;9815;52.334;20.890;2022-08-07T15:01:56;24.40;40.20
19359;DHT22;9815;52.334;20.890;2022-08-07T15:04:25;24.40;40.30
19359;DHT22;9815;52.334;20.890;2022-08-07T15:06:56;24.70;38.70
19359;DHT22;9815;52.334;20.890;2022-08-07T15:09:26;24.90;37.90
19359;DHT22;9815;52.334;20.890;2022-08-07T15:12:22;25.30;38.20
19359;DHT22;9815;52.334;20.890;2022-08-07T15:15:15;25.10;38.30
19359;DHT22;9815;52.334;20.890;2022-08-07T15:17:55;24.70;39.20
19359;DHT22;9815;52.334;20.890;2022-08-07T15:20:31;25.00;38.80
19359;DHT22;9815;52.334;20.890;2022-08-07T15:23:27;25.00;38.90
19359;DHT22;9815;52.334;20.890;2022-08-07T15:26:19;25.20;37.20
19359;DHT22;9815;52.334;20.890;2022-08-07T15:28:55;25.50;37.70
19359;DHT22;9815;52.334;20.890;2022-08-07T15:31:48;25.10;37.40
19359;DHT22;9815;52.334;20.890;2022-08-07T15:34:42;25.10;38.30
19359;DHT22;9815;52.334;20.890;2022-08-07T15:37:29;25.40;36.30
19359;DHT22;9815;52.334;20.890;2022-08-07T15:40:19;25.10;36.10
19359;DHT22;9815;52.334;20.890;2022-08-07T15:43:16;25.30;37.10
19359;DHT22;9815;52.334;20.890;2022-08-07T15:46:15;25.30;39.50
19359;DHT22;9815;52.334;20.890;2022-08-07T15:49:10;25.10;41.80
19359;DHT22;9815;52.334;20.890;2022-08-07T15:51:44;25.40;37.50
19359;DHT22;9815;52.334;20.890;2022-08-07T15:54:25;25.60;37.20
19359;DHT22;9815;52.334;20.890;2022-08-07T15:56:56;25.20;38.80
19359;DHT22;9815;52.334;20.890;2022-08-07T15:59:27;24.80;39.00
19359;DHT22;9815;52.334;20.890;2022-08-07T16:02:13;24.50;40.80
19359;DHT22;9815;52.334;20.890;2022-08-07T16:04:54;24.60;42.00
19359;DHT22;9815;52.334;20.890;2022-08-07T16:07:27;24.30;42.10
19359;DHT22;9815;52.334;20.890;2022-08-07T16:10:20;24.00;44.90
19359;DHT22;9815;52.334;20.890;2022-08-07T16:13:07;23.50;43.70
19359;DHT22;9815;52.334;20.890;2022-08-07T16:16:04;23.20;45.10
19359;DHT22;9815;52.334;20.890;2022-08-07T16:19:03;22.90;41.70
19359;DHT22;9815;52.334;20.890;2022-08-07T16:21:45;22.60;43.50
19359;DHT22;9815;52.334;20.890;2022-08-07T16:24:36;22.40;45.60
19359;DHT22;9815;52.334;20.890;2022-08-07T16:27:25;22.10;47.10
19359;DHT22;9815;52.334;20.890;2022-08-07T16:30:08;21.90;48.60
19359;DHT22;9815;52.334;20.890;2022-08-07T16:33:00;21.80;46.20
19359;DHT22;9815;52.334;20.890;2022-08-07T16:36:14;21.80;46.70
19359;DHT22;9815;52.334;20.890;2022-08-07T16:38:58;21.70;49.80
19359;DHT22;9815;52.334;20.890;2022-08-07T16:41:54;21.50;49.80
19359;DHT22;9815;52.334;20.890;2022-08-07T16:44:54;21.40;47.90
19359;DHT22;9815;52.334;20.890;2022-08-07T16:48:08;21.30;48.50
19359;DHT22;9815;52.334;20.890;2022-08-07T16:51:06;21.20;52.00
19359;DHT22;9815;52.334;20.890;2022-08-07T16:54:16;21.00;50.40
19359;DHT22;9815;52.334;20.890;2022-08-07T16:57:17;21.00;49.50
19359;DHT22;9815;52.334;20.890;2022-08-07T17:00:14;20.90;51.50
19359;DHT22;9815;52.334;20.890;2022-08-07T17:03:15;20.80;52.40
19359;DHT22;9815;52.334;20.890;2022-08-07T17:05:51;20.80;52.80
19359;DHT22;9815;52.334;20.890;2022-08-07T17:08:49;20.70;54.20
19359;DHT22;9815;52.334;20.890;2022-08-07T17:11:45;20.60;54.10
19359;DHT22;9815;52.334;20.890;2022-08-07T17:14:42;20.50;54.70